To NAV CANADA Home Page Login to a new session Search on AWWS site Feedback and Comments Disclaimer Vers la page française équivalente Tips FAQ What's new on the site To the Forecasts and Observations / NOTAM section To "File a Flight Plan" website Publications and other links Update of the User's profile FIC Telephone Numbers My Weather Data Folder Route Weather Data Regional Weather Data Local Weather Data To the Forecasts and Observations / NOTAM section
Request Generated 03/04/2015 at 18:44:52 UTC . Weather information available at that time is displayed.

METAR/TAF

NORTH BATTLEFORD/SK    (show WxCam)

METAR CYQW 041800Z AUTO 15002KT 9SM CLR M22/M27 A3027 RMK SLP315=
METAR CYQW 041700Z AUTO VRB02KT 9SM CLR M24/M28 A3027 RMK SLP316=
METAR CYQW 041600Z AUTO 24002KT 9SM CLR M27/M30 A3028 RMK SLP321=

TAF CYQW 041738Z 0418/0506 VRB03KT P6SM SKC
BECMG 0419/0421 14006KT
FM050300 12006KT P6SM SCT060 BKN100
RMK FCST BASED ON AUTO OBS. NXT FCST BY 050000Z=
Your time UTC time
Weather data provided by Environment Canada and NAV CANADA